createdAt,value
2018-06-30T00:00:53.701Z,11.93
2018-06-30T00:02:57.384Z,11.67
2018-06-30T00:05:01.017Z,10.93
2018-06-30T00:07:05.667Z,11.20
2018-06-30T00:09:09.766Z,12.07
2018-06-30T00:11:13.423Z,10.87
2018-06-30T00:13:16.965Z,11.40
2018-06-30T00:15:20.493Z,11.20
2018-06-30T00:17:24.133Z,10.53
2018-06-30T00:19:27.728Z,11.00
2018-06-30T00:21:31.305Z,10.60
2018-06-30T00:23:34.924Z,10.40
2018-06-30T00:25:38.471Z,11.37
2018-06-30T00:27:41.978Z,10.47
2018-06-30T00:29:45.522Z,10.83
2018-06-30T00:31:49.050Z,10.47
2018-06-30T00:33:52.540Z,10.97
2018-06-30T00:35:56.096Z,10.27
2018-06-30T00:37:59.637Z,9.83
2018-06-30T00:40:03.315Z,9.83
2018-06-30T00:42:06.853Z,10.57
2018-06-30T00:44:10.471Z,10.83
2018-06-30T00:46:14.033Z,11.30
2018-06-30T00:48:17.672Z,10.00
2018-06-30T00:50:21.184Z,9.80
2018-06-30T00:52:24.699Z,10.93
2018-06-30T00:54:28.212Z,11.70
2018-06-30T00:56:31.754Z,11.80
2018-06-30T00:58:35.396Z,11.40
2018-06-30T01:00:40.104Z,10.70
2018-06-30T01:02:43.685Z,11.07
2018-06-30T01:04:46.838Z,11.50
2018-06-30T01:06:50.423Z,11.07
2018-06-30T01:08:54.053Z,10.43
2018-06-30T01:10:57.672Z,10.80
2018-06-30T01:13:00.855Z,10.73
2018-06-30T01:15:04.560Z,11.23
2018-06-30T01:17:07.946Z,11.33
2018-06-30T01:19:11.452Z,10.97
2018-06-30T01:21:14.943Z,11.00
2018-06-30T01:23:18.483Z,12.00
2018-06-30T01:25:21.959Z,12.27
2018-06-30T01:27:25.476Z,12.27
2018-06-30T01:29:28.955Z,12.50
2018-06-30T01:31:32.504Z,12.13
2018-06-30T01:33:36.441Z,11.73
2018-06-30T01:35:39.913Z,13.10
2018-06-30T01:37:43.448Z,12.90
2018-06-30T01:39:48.986Z,13.07
2018-06-30T01:41:52.874Z,13.67
2018-06-30T01:43:56.466Z,13.23
2018-06-30T01:45:59.670Z,13.00
2018-06-30T01:48:03.423Z,12.73
2018-06-30T01:50:06.951Z,13.30
2018-06-30T01:52:10.483Z,12.50
2018-06-30T01:54:14.079Z,12.60
2018-06-30T01:56:17.667Z,11.33
2018-06-30T01:58:21.180Z,13.10
2018-06-30T02:00:24.727Z,12.60
2018-06-30T02:02:27.922Z,12.37
2018-06-30T02:04:31.434Z,12.10
2018-06-30T02:06:35.065Z,12.03
2018-06-30T02:08:38.602Z,12.90
2018-06-30T02:10:42.200Z,12.80
2018-06-30T02:12:45.756Z,12.27
2018-06-30T02:14:49.427Z,12.90
2018-06-30T02:16:53.012Z,12.60
2018-06-30T02:18:56.539Z,11.97
2018-06-30T02:21:00.160Z,11.40
2018-06-30T02:23:03.682Z,11.97
2018-06-30T02:25:07.231Z,12.97
2018-06-30T02:27:10.803Z,12.90
2018-06-30T02:29:14.363Z,13.20
2018-06-30T02:31:17.891Z,11.80
2018-06-30T02:33:21.420Z,11.73
2018-06-30T02:35:24.951Z,11.13
2018-06-30T02:37:28.503Z,10.63
2018-06-30T02:39:32.034Z,10.33
2018-06-30T02:41:36.037Z,10.93
2018-06-30T02:43:39.735Z,11.23
2018-06-30T02:45:43.325Z,11.73
2018-06-30T02:47:46.851Z,10.67
2018-06-30T02:49:50.092Z,10.87
2018-06-30T02:51:53.584Z,11.17
2018-06-30T02:53:57.188Z,11.43
2018-06-30T02:56:00.707Z,11.53
2018-06-30T02:58:04.344Z,10.73
2018-06-30T03:00:11.018Z,11.57
2018-06-30T03:02:14.604Z,12.70
2018-06-30T03:04:18.324Z,12.00
2018-06-30T03:06:21.839Z,11.90
2018-06-30T03:08:25.363Z,11.80
2018-06-30T03:10:28.910Z,11.63
2018-06-30T03:12:32.502Z,12.67
2018-06-30T03:14:36.016Z,11.83
2018-06-30T03:16:39.625Z,12.53
2018-06-30T03:18:43.124Z,12.70
2018-06-30T03:20:46.637Z,12.53
2018-06-30T03:22:50.099Z,11.83
2018-06-30T03:24:53.593Z,12.53
2018-06-30T03:26:57.223Z,11.87
2018-06-30T03:29:00.799Z,12.33
2018-06-30T03:31:04.345Z,11.70
2018-06-30T03:33:07.886Z,11.83
2018-06-30T03:35:11.405Z,13.13
2018-06-30T03:37:14.976Z,11.50
2018-06-30T03:39:18.563Z,12.10
2018-06-30T03:41:22.244Z,11.67
2018-06-30T03:43:25.782Z,12.03
2018-06-30T03:45:30.269Z,12.03
2018-06-30T03:47:33.878Z,11.00
2018-06-30T03:49:37.464Z,11.33
2018-06-30T03:51:41.061Z,11.03
2018-06-30T03:53:45.296Z,11.17
2018-06-30T03:55:48.826Z,10.77
2018-06-30T03:57:52.439Z,11.10
2018-06-30T03:59:56.064Z,11.27
2018-06-30T04:01:59.554Z,10.83
2018-06-30T04:04:03.114Z,11.80
2018-06-30T04:06:07.256Z,11.60
2018-06-30T04:08:10.554Z,10.97
2018-06-30T04:10:14.107Z,11.57
2018-06-30T04:12:17.612Z,10.83
2018-06-30T04:14:21.146Z,11.17
2018-06-30T04:16:24.323Z,11.63
2018-06-30T04:18:27.852Z,11.20
2018-06-30T04:20:31.451Z,10.63
2018-06-30T04:22:35.003Z,11.50
2018-06-30T04:24:38.567Z,10.73
2018-06-30T04:26:43.111Z,10.90
2018-06-30T04:28:46.624Z,11.17
2018-06-30T04:30:50.178Z,11.67
2018-06-30T04:32:53.686Z,11.83
2018-06-30T04:34:57.251Z,11.10
2018-06-30T04:37:00.738Z,11.63
2018-06-30T04:39:06.272Z,11.60
2018-06-30T04:41:09.811Z,11.10
2018-06-30T04:43:13.367Z,11.93
2018-06-30T04:45:16.887Z,10.77
2018-06-30T04:47:20.384Z,11.47
2018-06-30T04:49:24.005Z,10.73
2018-06-30T04:51:27.569Z,11.30
2018-06-30T04:53:31.070Z,11.30
2018-06-30T04:55:34.649Z,11.23
2018-06-30T04:57:38.304Z,10.77
2018-06-30T04:59:41.805Z,10.87
2018-06-30T05:01:45.444Z,11.33
2018-06-30T05:03:49.055Z,12.10
2018-06-30T05:05:52.622Z,11.03
2018-06-30T05:07:56.160Z,10.80
2018-06-30T05:09:59.786Z,10.57
2018-06-30T05:12:03.380Z,11.33
2018-06-30T05:14:07.100Z,11.03
2018-06-30T05:16:10.741Z,10.93
2018-06-30T05:18:14.388Z,10.33
2018-06-30T05:20:17.951Z,10.37
2018-06-30T05:22:21.451Z,9.87
2018-06-30T05:24:25.128Z,10.80
2018-06-30T05:26:28.656Z,10.47
2018-06-30T05:28:32.115Z,9.63
2018-06-30T05:30:35.766Z,10.50
2018-06-30T05:32:39.282Z,10.60
2018-06-30T05:34:42.834Z,10.60
2018-06-30T05:36:46.371Z,10.20
2018-06-30T05:38:49.881Z,11.10
2018-06-30T05:40:53.443Z,9.90
2018-06-30T05:42:57.236Z,10.63
2018-06-30T05:45:00.772Z,10.53
2018-06-30T05:47:04.295Z,10.93
2018-06-30T05:49:07.851Z,9.73
2018-06-30T05:51:11.368Z,10.97
2018-06-30T05:53:14.962Z,11.80
2018-06-30T05:55:18.508Z,10.37
2018-06-30T05:57:22.058Z,11.00
2018-06-30T05:59:25.607Z,10.20
2018-06-30T06:01:29.394Z,9.60
2018-06-30T06:03:32.932Z,10.37
2018-06-30T06:05:37.383Z,9.43
2018-06-30T06:07:41.003Z,10.43
2018-06-30T06:09:44.562Z,10.03
2018-06-30T06:11:48.264Z,10.97
2018-06-30T06:13:51.812Z,10.20
2018-06-30T06:15:55.396Z,11.03
2018-06-30T06:17:58.963Z,10.03
2018-06-30T06:20:02.517Z,10.60
2018-06-30T06:22:06.093Z,9.93
2018-06-30T06:24:09.620Z,10.50
2018-06-30T06:26:13.161Z,11.97
2018-06-30T06:28:16.667Z,9.80
2018-06-30T06:30:26.692Z,9.13
2018-06-30T06:32:30.250Z,8.50
2018-06-30T06:34:34.072Z,8.23
2018-06-30T06:36:37.594Z,8.17
2018-06-30T06:38:41.062Z,9.17
2018-06-30T06:40:44.763Z,8.90
2018-06-30T06:42:49.161Z,8.00
2018-06-30T06:44:52.752Z,7.97
2018-06-30T06:46:56.416Z,7.90
2018-06-30T06:48:59.937Z,7.93
2018-06-30T06:51:03.543Z,6.37
2018-06-30T06:53:07.488Z,6.60
2018-06-30T06:55:11.006Z,7.03
2018-06-30T06:57:14.644Z,6.37
2018-06-30T06:59:18.160Z,6.80
2018-06-30T07:01:21.832Z,6.53
2018-06-30T07:03:25.374Z,6.47
2018-06-30T07:05:28.936Z,6.93
2018-06-30T07:07:32.448Z,9.03
2018-06-30T07:09:35.809Z,6.83
2018-06-30T07:11:40.257Z,5.83
2018-06-30T07:13:43.775Z,5.67
2018-06-30T07:15:47.325Z,5.33
2018-06-30T07:17:50.804Z,5.37
2018-06-30T07:19:54.352Z,5.00
2018-06-30T07:21:57.968Z,5.40
2018-06-30T07:24:01.807Z,4.27
2018-06-30T07:26:05.116Z,4.23
2018-06-30T07:28:08.765Z,4.50
2018-06-30T07:30:12.282Z,3.73
2018-06-30T07:32:15.947Z,3.97
2018-06-30T07:34:19.532Z,4.20
2018-06-30T07:36:23.258Z,4.40
2018-06-30T07:38:26.764Z,4.17
2018-06-30T07:40:30.323Z,4.58
2018-06-30T07:42:33.790Z,4.13
2018-06-30T07:44:37.276Z,3.43
2018-06-30T07:46:40.922Z,3.90
2018-06-30T07:48:44.411Z,4.63
2018-06-30T07:50:47.908Z,4.47
2018-06-30T07:52:51.449Z,4.20
2018-06-30T07:54:55.071Z,4.47
2018-06-30T07:56:58.750Z,4.17
2018-06-30T07:59:02.337Z,4.37
2018-06-30T08:01:05.926Z,3.90
2018-06-30T08:03:09.733Z,4.10
2018-06-30T08:05:13.096Z,4.50
2018-06-30T08:07:16.996Z,4.70
2018-06-30T08:09:20.462Z,4.53
2018-06-30T08:11:24.007Z,4.23
2018-06-30T08:13:27.515Z,4.40
2018-06-30T08:15:31.049Z,4.53
2018-06-30T08:17:34.659Z,3.97
2018-06-30T08:19:38.243Z,3.27
2018-06-30T08:21:41.801Z,4.57
2018-06-30T08:23:45.304Z,4.23
2018-06-30T08:25:48.900Z,4.50
2018-06-30T08:27:52.574Z,4.37
2018-06-30T08:29:56.142Z,5.43
2018-06-30T08:31:59.695Z,5.20
2018-06-30T08:34:03.215Z,4.30
2018-06-30T08:36:06.759Z,4.60
2018-06-30T08:38:10.352Z,3.80
2018-06-30T08:40:13.872Z,3.80
2018-06-30T08:42:17.403Z,4.20
2018-06-30T08:44:20.958Z,3.90
2018-06-30T08:46:24.443Z,4.00
2018-06-30T08:48:28.283Z,3.40
2018-06-30T08:50:31.823Z,3.43
2018-06-30T08:52:35.447Z,4.23
2018-06-30T08:54:38.972Z,3.57
2018-06-30T08:56:42.486Z,3.50
2018-06-30T08:58:46.410Z,3.50
2018-06-30T09:00:50.045Z,3.63
2018-06-30T09:02:53.631Z,3.43
2018-06-30T09:04:57.171Z,3.50
2018-06-30T09:07:00.781Z,4.17
2018-06-30T09:09:06.511Z,3.77
2018-06-30T09:11:10.227Z,4.10
2018-06-30T09:13:13.744Z,3.87
2018-06-30T09:15:16.951Z,4.40
2018-06-30T09:17:20.461Z,5.30
2018-06-30T09:19:23.962Z,5.77
2018-06-30T09:21:27.531Z,3.93
2018-06-30T09:23:31.090Z,3.90
2018-06-30T09:25:34.576Z,3.73
2018-06-30T09:27:38.217Z,3.80
2018-06-30T09:29:41.720Z,3.70
2018-06-30T09:31:45.219Z,3.70
2018-06-30T09:33:48.808Z,3.98
2018-06-30T09:35:52.396Z,3.60
2018-06-30T09:37:55.961Z,4.00
2018-06-30T09:39:59.424Z,3.77
2018-06-30T09:42:02.962Z,3.60
2018-06-30T09:44:07.118Z,3.70
2018-06-30T09:46:10.644Z,4.17
2018-06-30T09:48:14.186Z,4.00
2018-06-30T09:50:17.739Z,4.62
2018-06-30T09:52:21.305Z,3.95
2018-06-30T09:54:24.896Z,4.12
2018-06-30T09:56:28.483Z,4.12
2018-06-30T09:58:31.981Z,3.67
2018-06-30T10:00:38.431Z,3.95
2018-06-30T10:02:41.983Z,4.90
2018-06-30T10:04:45.529Z,3.80
2018-06-30T10:06:49.053Z,3.58
2018-06-30T10:08:52.568Z,3.70
2018-06-30T10:10:56.107Z,3.12
2018-06-30T10:12:59.653Z,3.47
2018-06-30T10:15:03.159Z,4.80
2018-06-30T10:17:06.673Z,4.62
2018-06-30T10:19:10.286Z,3.75
2018-06-30T10:21:13.799Z,3.72
2018-06-30T10:23:17.280Z,4.12
2018-06-30T10:25:20.817Z,3.85
2018-06-30T10:27:24.319Z,13.13
2018-06-30T10:29:27.861Z,4.40
2018-06-30T10:31:31.336Z,4.10
2018-06-30T10:33:34.970Z,3.92
2018-06-30T10:35:38.808Z,3.95
2018-06-30T10:37:42.382Z,4.30
2018-06-30T10:39:45.863Z,4.13
2018-06-30T10:41:49.415Z,3.70
2018-06-30T10:43:52.927Z,3.70
2018-06-30T10:45:56.487Z,4.05
2018-06-30T10:48:00.060Z,3.30
2018-06-30T10:50:03.802Z,3.72
2018-06-30T10:52:07.452Z,3.55
2018-06-30T10:54:10.965Z,4.35
2018-06-30T10:56:14.552Z,4.03
2018-06-30T10:58:18.179Z,3.65
2018-06-30T11:00:21.959Z,3.90
2018-06-30T11:02:25.438Z,3.60
2018-06-30T11:04:28.985Z,3.80
2018-06-30T11:06:32.580Z,3.83
2018-06-30T11:08:36.116Z,3.53
2018-06-30T11:10:39.744Z,3.58
2018-06-30T11:12:43.291Z,3.50
2018-06-30T11:14:46.743Z,3.22
2018-06-30T11:16:50.279Z,3.50
2018-06-30T11:18:53.852Z,3.58
2018-06-30T11:20:57.407Z,3.80
2018-06-30T11:23:00.928Z,3.40
2018-06-30T11:25:04.593Z,3.47
2018-06-30T11:27:08.114Z,3.72
2018-06-30T11:29:11.639Z,3.40
2018-06-30T11:31:15.257Z,3.77
2018-06-30T11:33:18.871Z,3.70
2018-06-30T11:35:22.408Z,3.75
2018-06-30T11:37:25.924Z,3.47
2018-06-30T11:39:29.487Z,3.27
2018-06-30T11:41:32.983Z,3.90
2018-06-30T11:43:36.151Z,3.65
2018-06-30T11:45:39.783Z,3.70
2018-06-30T11:47:43.368Z,3.52
2018-06-30T11:49:46.848Z,3.65
2018-06-30T11:51:50.380Z,4.10
2018-06-30T11:53:53.902Z,3.12
2018-06-30T11:55:57.456Z,3.30
2018-06-30T11:58:00.940Z,3.10
2018-06-30T12:00:05.109Z,3.55
2018-06-30T12:02:09.035Z,5.25
2018-06-30T12:04:12.865Z,3.37
2018-06-30T12:06:16.447Z,3.90
2018-06-30T12:08:19.984Z,3.37
2018-06-30T12:10:23.522Z,3.25
2018-06-30T12:12:27.021Z,3.80
2018-06-30T12:14:30.574Z,3.62
2018-06-30T12:16:34.091Z,3.45
2018-06-30T12:18:37.726Z,3.85
2018-06-30T12:20:41.275Z,3.30
2018-06-30T12:22:44.764Z,4.97
2018-06-30T12:24:48.331Z,7.05
2018-06-30T12:26:51.850Z,3.58
2018-06-30T12:28:55.457Z,3.62
2018-06-30T12:30:58.961Z,3.45
2018-06-30T12:33:02.480Z,3.50
2018-06-30T12:35:06.171Z,4.22
2018-06-30T12:37:09.727Z,4.05
2018-06-30T12:39:13.562Z,4.05
2018-06-30T12:41:16.981Z,3.90
2018-06-30T12:43:20.471Z,3.85
2018-06-30T12:45:23.971Z,3.42
2018-06-30T12:47:27.460Z,3.50
2018-06-30T12:49:30.979Z,3.33
2018-06-30T12:51:34.152Z,3.30
2018-06-30T12:53:37.799Z,5.22
2018-06-30T12:55:41.317Z,5.60
2018-06-30T12:57:44.959Z,4.28
2018-06-30T12:59:48.517Z,4.08
2018-06-30T13:01:52.047Z,3.58
2018-06-30T13:03:55.598Z,4.00
2018-06-30T13:05:59.167Z,3.60
2018-06-30T13:08:02.700Z,3.30
2018-06-30T13:10:06.316Z,4.00
2018-06-30T13:12:10.012Z,3.50
2018-06-30T13:14:13.541Z,3.72
2018-06-30T13:16:17.048Z,3.65
2018-06-30T13:18:20.518Z,3.50
2018-06-30T13:20:24.119Z,3.33
2018-06-30T13:22:27.666Z,3.85
2018-06-30T13:24:31.272Z,3.10
2018-06-30T13:26:34.784Z,3.58
2018-06-30T13:28:38.348Z,3.72
2018-06-30T13:30:41.855Z,3.90
2018-06-30T13:32:45.384Z,4.20
2018-06-30T13:34:48.904Z,3.50
2018-06-30T13:36:53.095Z,3.80
2018-06-30T13:38:56.598Z,3.52
2018-06-30T13:41:00.178Z,5.05
2018-06-30T13:43:03.790Z,4.58
2018-06-30T13:45:08.611Z,3.85
2018-06-30T13:47:12.127Z,4.00
2018-06-30T13:49:15.664Z,3.75
2018-06-30T13:51:19.217Z,3.17
2018-06-30T13:53:22.739Z,4.20
2018-06-30T13:55:26.263Z,3.67
2018-06-30T13:57:29.814Z,4.17
2018-06-30T13:59:33.412Z,3.90
2018-06-30T14:01:37.000Z,3.50
2018-06-30T14:03:40.655Z,3.52
2018-06-30T14:05:44.204Z,3.47
2018-06-30T14:07:47.672Z,4.08
2018-06-30T14:09:51.231Z,3.80
2018-06-30T14:11:54.892Z,3.62
2018-06-30T14:13:58.400Z,3.27
2018-06-30T14:16:01.975Z,3.22
2018-06-30T14:18:05.779Z,3.45
2018-06-30T14:20:09.802Z,3.58
2018-06-30T14:22:13.532Z,3.47
2018-06-30T14:24:17.065Z,3.83
2018-06-30T14:26:20.591Z,3.50
2018-06-30T14:28:24.107Z,3.70
2018-06-30T14:30:27.633Z,3.60
2018-06-30T14:32:31.271Z,3.40
2018-06-30T14:34:34.426Z,3.50
2018-06-30T14:36:37.967Z,4.45
2018-06-30T14:38:41.695Z,3.72
2018-06-30T14:40:45.310Z,3.65
2018-06-30T14:42:48.898Z,3.17
2018-06-30T14:44:52.448Z,3.67
2018-06-30T14:46:55.669Z,7.47
2018-06-30T14:48:59.268Z,4.42
2018-06-30T14:51:02.876Z,3.60
2018-06-30T14:53:06.567Z,4.05
2018-06-30T14:55:10.192Z,3.33
2018-06-30T14:57:13.682Z,3.42
2018-06-30T14:59:17.623Z,3.60
2018-06-30T15:01:21.159Z,3.60
2018-06-30T15:03:24.643Z,4.05
2018-06-30T15:05:28.240Z,3.50
2018-06-30T15:07:31.842Z,3.15
2018-06-30T15:09:35.319Z,3.70
2018-06-30T15:11:38.814Z,3.80
2018-06-30T15:13:42.343Z,3.58
2018-06-30T15:15:45.929Z,3.42
2018-06-30T15:17:49.427Z,4.40
2018-06-30T15:19:53.007Z,3.87
2018-06-30T15:21:56.656Z,4.12
2018-06-30T15:24:00.160Z,4.05
2018-06-30T15:26:03.816Z,4.12
2018-06-30T15:28:07.382Z,4.00
2018-06-30T15:30:11.002Z,4.05
2018-06-30T15:32:14.520Z,3.40
2018-06-30T15:34:18.052Z,3.50
2018-06-30T15:36:21.725Z,3.08
2018-06-30T15:38:25.297Z,3.85
2018-06-30T15:40:28.912Z,3.47
2018-06-30T15:42:38.820Z,3.60
2018-06-30T15:44:42.339Z,3.62
2018-06-30T15:46:45.885Z,3.65
2018-06-30T15:48:49.380Z,3.12
2018-06-30T15:50:52.621Z,3.80
2018-06-30T15:52:56.112Z,3.67
2018-06-30T15:54:59.595Z,3.40
2018-06-30T15:57:03.198Z,3.77
2018-06-30T15:59:06.765Z,3.10
2018-06-30T16:01:10.280Z,3.37
2018-06-30T16:03:13.776Z,3.83
2018-06-30T16:05:17.277Z,4.15
2018-06-30T16:07:20.827Z,3.87
2018-06-30T16:09:24.379Z,3.85
2018-06-30T16:11:27.911Z,3.17
2018-06-30T16:13:31.495Z,3.60
2018-06-30T16:15:35.043Z,3.00
2018-06-30T16:17:38.682Z,3.40
2018-06-30T16:19:42.175Z,3.75
2018-06-30T16:21:45.864Z,3.50
2018-06-30T16:23:49.421Z,3.17
2018-06-30T16:25:53.041Z,3.30
2018-06-30T16:27:56.571Z,3.25
2018-06-30T16:30:00.169Z,3.83
2018-06-30T16:32:03.770Z,3.00
2018-06-30T16:34:07.315Z,3.98
2018-06-30T16:36:11.030Z,3.80
2018-06-30T16:38:14.535Z,4.40
2018-06-30T16:40:18.026Z,3.47
2018-06-30T16:42:21.633Z,5.50
2018-06-30T16:44:25.255Z,3.45
2018-06-30T16:46:28.784Z,3.62
2018-06-30T16:48:32.309Z,3.95
2018-06-30T16:50:35.817Z,4.60
2018-06-30T16:52:39.507Z,4.00
2018-06-30T16:54:43.029Z,4.17
2018-06-30T16:56:46.660Z,3.50
2018-06-30T16:58:50.332Z,3.83
2018-06-30T17:00:53.859Z,7.05
2018-06-30T17:02:57.395Z,5.87
2018-06-30T17:05:00.883Z,3.65
2018-06-30T17:07:04.445Z,3.80
2018-06-30T17:09:12.001Z,3.70
2018-06-30T17:11:15.696Z,4.10
2018-06-30T17:13:19.219Z,4.00
2018-06-30T17:15:22.721Z,3.67
2018-06-30T17:17:26.330Z,5.10
2018-06-30T17:19:29.834Z,4.53
2018-06-30T17:21:34.176Z,5.03
2018-06-30T17:23:37.766Z,4.58
2018-06-30T17:25:41.318Z,4.90
2018-06-30T17:27:44.842Z,4.25
2018-06-30T17:29:48.750Z,4.65
2018-06-30T17:31:52.517Z,4.80
2018-06-30T17:33:56.015Z,3.98
2018-06-30T17:35:59.615Z,5.83
2018-06-30T17:38:03.270Z,3.52
2018-06-30T17:40:06.980Z,3.70
2018-06-30T17:42:10.687Z,4.62
2018-06-30T17:44:14.196Z,3.65
2018-06-30T17:46:17.711Z,3.70
2018-06-30T17:48:21.290Z,4.15
2018-06-30T17:50:24.907Z,3.98
2018-06-30T17:52:28.359Z,3.72
2018-06-30T17:54:31.950Z,3.60
2018-06-30T17:56:35.683Z,8.50
2018-06-30T17:58:39.338Z,4.33
2018-06-30T18:00:42.896Z,3.50
2018-06-30T18:02:46.420Z,3.85
2018-06-30T18:04:49.949Z,3.72
2018-06-30T18:06:53.493Z,3.85
2018-06-30T18:08:57.042Z,3.30
2018-06-30T18:11:00.671Z,3.40
2018-06-30T18:13:04.280Z,3.47
2018-06-30T18:15:07.901Z,3.75
2018-06-30T18:17:11.483Z,3.00
2018-06-30T18:19:14.972Z,3.65
2018-06-30T18:21:18.533Z,3.50
2018-06-30T18:23:22.168Z,3.20
2018-06-30T18:25:25.722Z,3.75
2018-06-30T18:27:29.325Z,3.00
2018-06-30T18:29:32.832Z,3.50
2018-06-30T18:31:36.449Z,3.65
2018-06-30T18:33:40.108Z,3.40
2018-06-30T18:35:43.688Z,3.83
2018-06-30T18:37:47.287Z,3.47
2018-06-30T18:39:50.788Z,3.67
2018-06-30T18:41:54.317Z,3.50
2018-06-30T18:43:57.823Z,8.28
2018-06-30T18:46:01.490Z,7.53
2018-06-30T18:48:05.264Z,9.13
2018-06-30T18:50:08.849Z,5.50
2018-06-30T18:52:12.405Z,4.83
2018-06-30T18:54:15.945Z,3.25
2018-06-30T18:56:19.475Z,3.72
2018-06-30T18:58:23.104Z,3.20
2018-06-30T19:00:26.590Z,3.50
2018-06-30T19:02:30.181Z,4.05
2018-06-30T19:04:33.678Z,3.45
2018-06-30T19:06:37.315Z,3.17
2018-06-30T19:08:40.965Z,3.30
2018-06-30T19:10:44.583Z,3.37
2018-06-30T19:12:48.211Z,3.55
2018-06-30T19:14:51.846Z,2.70
2018-06-30T19:16:55.388Z,3.27
2018-06-30T19:18:59.007Z,2.92
2018-06-30T19:21:02.563Z,3.00
2018-06-30T19:23:06.141Z,2.80
2018-06-30T19:25:09.706Z,3.33
2018-06-30T19:27:13.257Z,3.27
2018-06-30T19:29:16.762Z,2.70
2018-06-30T19:31:20.340Z,2.95
2018-06-30T19:33:30.323Z,3.40
2018-06-30T19:35:33.822Z,3.10
2018-06-30T19:37:37.324Z,3.10
2018-06-30T19:39:41.039Z,2.90
2018-06-30T19:41:44.551Z,2.47
2018-06-30T19:43:48.131Z,2.43
2018-06-30T19:45:51.770Z,2.67
2018-06-30T19:47:55.312Z,2.03
2018-06-30T19:49:58.824Z,2.10
2018-06-30T19:52:02.366Z,2.60
2018-06-30T19:54:06.031Z,1.70
2018-06-30T19:56:09.687Z,1.70
2018-06-30T19:58:13.525Z,1.80
2018-06-30T20:00:17.085Z,1.60
2018-06-30T20:02:20.732Z,1.60
2018-06-30T20:04:24.318Z,1.40
2018-06-30T20:06:27.856Z,1.60
2018-06-30T20:08:31.431Z,1.70
2018-06-30T20:10:35.047Z,1.30
2018-06-30T20:12:38.561Z,1.40
2018-06-30T20:14:42.100Z,1.50
2018-06-30T20:16:45.652Z,1.23
2018-06-30T20:18:49.165Z,1.93
2018-06-30T20:20:52.765Z,1.73
2018-06-30T20:22:56.511Z,2.00
2018-06-30T20:25:00.021Z,1.40
2018-06-30T20:27:03.666Z,1.47
2018-06-30T20:29:07.388Z,1.87
2018-06-30T20:31:10.939Z,1.53
2018-06-30T20:33:14.501Z,1.70
2018-06-30T20:35:18.042Z,1.30
2018-06-30T20:37:21.578Z,1.67
2018-06-30T20:39:25.151Z,1.57
2018-06-30T20:41:28.709Z,1.63
2018-06-30T20:43:32.251Z,1.73
2018-06-30T20:45:35.766Z,1.43
2018-06-30T20:47:39.314Z,2.00
2018-06-30T20:49:42.892Z,2.20
2018-06-30T20:51:46.395Z,2.00
2018-06-30T20:53:49.980Z,1.73
2018-06-30T20:55:53.576Z,1.97
2018-06-30T20:57:57.348Z,1.90
2018-06-30T21:00:00.952Z,2.00
2018-06-30T21:02:04.648Z,1.70
2018-06-30T21:04:08.372Z,1.67
2018-06-30T21:06:12.001Z,1.23
2018-06-30T21:08:15.588Z,1.10
2018-06-30T21:10:19.135Z,1.60
2018-06-30T21:12:22.688Z,1.23
2018-06-30T21:14:26.273Z,1.40
2018-06-30T21:16:29.821Z,1.20
2018-06-30T21:18:33.336Z,1.23
2018-06-30T21:20:36.877Z,1.00
2018-06-30T21:22:40.401Z,1.30
2018-06-30T21:24:43.588Z,1.30
2018-06-30T21:26:47.189Z,1.40
2018-06-30T21:28:50.797Z,1.13
2018-06-30T21:30:54.372Z,0.90
2018-06-30T21:32:57.929Z,1.10
2018-06-30T21:35:01.481Z,0.80
2018-06-30T21:37:04.914Z,0.73
2018-06-30T21:39:10.974Z,0.80
2018-06-30T21:41:14.547Z,1.03
2018-06-30T21:43:18.508Z,1.00
2018-06-30T21:45:22.198Z,1.20
2018-06-30T21:47:25.706Z,1.43
2018-06-30T21:49:29.337Z,1.00
2018-06-30T21:51:32.864Z,0.83
2018-06-30T21:53:36.463Z,1.20
2018-06-30T21:55:39.972Z,1.20
2018-06-30T21:57:43.507Z,0.97
2018-06-30T21:59:47.184Z,1.07
2018-06-30T22:01:50.785Z,1.10
2018-06-30T22:03:55.507Z,1.40
2018-06-30T22:05:59.150Z,0.90
2018-06-30T22:08:02.794Z,1.20
2018-06-30T22:10:07.272Z,1.30
2018-06-30T22:12:10.790Z,1.03
2018-06-30T22:14:14.383Z,1.30
2018-06-30T22:16:17.915Z,1.10
2018-06-30T22:18:21.520Z,1.10
2018-06-30T22:20:25.076Z,1.30
2018-06-30T22:22:28.581Z,1.30
2018-06-30T22:24:32.129Z,1.20
2018-06-30T22:26:35.693Z,1.07
2018-06-30T22:28:39.277Z,1.40
2018-06-30T22:30:42.930Z,1.30
2018-06-30T22:32:46.531Z,1.30
2018-06-30T22:34:50.095Z,1.50
2018-06-30T22:36:53.715Z,1.20
2018-06-30T22:38:58.169Z,1.17
2018-06-30T22:41:01.832Z,1.07
2018-06-30T22:43:05.533Z,1.23
2018-06-30T22:45:09.164Z,1.50
2018-06-30T22:47:12.736Z,1.37
2018-06-30T22:49:16.222Z,1.10
2018-06-30T22:51:19.744Z,1.30
2018-06-30T22:53:23.279Z,1.10
2018-06-30T22:55:26.847Z,1.00
2018-06-30T22:57:30.464Z,1.13
2018-06-30T22:59:34.115Z,1.20
2018-06-30T23:01:37.680Z,1.47
2018-06-30T23:03:41.195Z,1.20
2018-06-30T23:05:44.733Z,1.30
2018-06-30T23:07:48.272Z,1.17
2018-06-30T23:09:52.112Z,1.20
2018-06-30T23:11:55.672Z,1.13
2018-06-30T23:13:59.182Z,1.03
2018-06-30T23:16:02.831Z,1.20
2018-06-30T23:18:06.379Z,1.50
2018-06-30T23:20:10.036Z,0.70
2018-06-30T23:22:13.678Z,1.10
2018-06-30T23:24:17.198Z,1.17
2018-06-30T23:26:20.756Z,0.97
2018-06-30T23:28:24.234Z,1.20
2018-06-30T23:30:28.470Z,1.00
2018-06-30T23:32:31.991Z,1.20
2018-06-30T23:34:35.578Z,1.00
2018-06-30T23:36:39.089Z,1.10
2018-06-30T23:38:42.607Z,0.90
2018-06-30T23:40:46.132Z,0.90
2018-06-30T23:42:49.734Z,0.77
2018-06-30T23:44:53.270Z,1.00
2018-06-30T23:46:56.774Z,1.00
2018-06-30T23:49:00.264Z,0.90
2018-06-30T23:51:03.841Z,1.00
2018-06-30T23:53:07.333Z,1.10
2018-06-30T23:55:10.954Z,0.87
2018-06-30T23:57:14.537Z,0.90
2018-06-30T23:59:18.053Z,0.80
